
<gpx xmlns="http://www.topografix.com/GPX/1/1" xmlns:gpxx="http://www.garmin.com/xmlschemas/GpxExtensions/v3" xmlns:xsi="http://www.w3.org/2001/XMLSchema-instance" version="1.1" creator="Adze - http://kobotsw.com/apps/adze" xsi:schemaLocation="http://www.topografix.com/GPX/1/1 http://www.topografix.com/GPX/1/1/gpx.xsd http://www.garmin.com/xmlschemas/GpxExtensions/v3 http://www.garmin.com/xmlschemas/GpxExtensionsv3.xsd">
    <metadata>
        <name>Untitled Document</name>
        <link href="http://www.garmin.com"></link>
        <time>2018-02-04T08:16:35.007Z</time>
    </metadata>
    <wpt lon="100.947143" lat="12.734647">
        <time>2016-11-27T09:33:59Z</time>
        <name>Water Sunday</name>
        <cmt>Road</cmt>
        <desc>Road</desc>
        <sym>Drinking Water</sym>
        <extensions>
            <gpxx:WaypointExtension xmlns:gpxx="http://www.garmin.com/xmlschemas/GpxExtensions/v3">
                <gpxx:DisplayMode>SymbolOnly</gpxx:DisplayMode>
            </gpxx:WaypointExtension>
        </extensions>
    </wpt>
    <wpt lon="100.897870" lat="12.764601">
        <ele>7.000000</ele>
        <time>2016-11-25T08:42:15Z</time>
        <name>Willkris</name>
        <sym>Lodging</sym>
        <extensions>
            <gpxx:WaypointExtension xmlns:gpxx="http://www.garmin.com/xmlschemas/GpxExtensions/v3">
                <gpxx:DisplayMode>SymbolOnly</gpxx:DisplayMode>
            </gpxx:WaypointExtension>
        </extensions>
    </wpt>
    <trk>
        <name>Sunday</name>
        <extensions>
            <gpxx:TrackExtension xmlns:gpxx="http://www.garmin.com/xmlschemas/GpxExtensions/v3">
                <gpxx:DisplayColor>Green</gpxx:DisplayColor>
            </gpxx:TrackExtension>
        </extensions>
        <trkseg>
            <trkpt lon="100.897922" lat="12.764519">
                <ele>13.120000</ele>
                <time>2016-11-27T03:03:57Z</time>
            </trkpt>
            <trkpt lon="100.897853" lat="12.764690">
                <ele>10.710000</ele>
                <time>2016-11-27T03:04:28Z</time>
            </trkpt>
            <trkpt lon="100.897319" lat="12.764936">
                <ele>8.310000</ele>
                <time>2016-11-27T03:04:48Z</time>
            </trkpt>
            <trkpt lon="100.897277" lat="12.764982">
                <ele>7.830000</ele>
                <time>2016-11-27T03:04:50Z</time>
            </trkpt>
            <trkpt lon="100.897275" lat="12.765046">
                <ele>7.830000</ele>
                <time>2016-11-27T03:04:52Z</time>
            </trkpt>
            <trkpt lon="100.897793" lat="12.766014">
                <ele>7.830000</ele>
                <time>2016-11-27T03:05:22Z</time>
            </trkpt>
            <trkpt lon="100.898593" lat="12.766822">
                <ele>9.270000</ele>
                <time>2016-11-27T03:05:50Z</time>
            </trkpt>
            <trkpt lon="100.898597" lat="12.766850">
                <ele>9.270000</ele>
                <time>2016-11-27T03:05:51Z</time>
            </trkpt>
            <trkpt lon="100.898004" lat="12.767217">
                <ele>9.270000</ele>
                <time>2016-11-27T03:06:11Z</time>
            </trkpt>
            <trkpt lon="100.897654" lat="12.767624">
                <ele>8.310000</ele>
                <time>2016-11-27T03:06:25Z</time>
            </trkpt>
            <trkpt lon="100.898124" lat="12.768258">
                <ele>8.310000</ele>
                <time>2016-11-27T03:06:51Z</time>
            </trkpt>
            <trkpt lon="100.897996" lat="12.768431">
                <ele>8.310000</ele>
                <time>2016-11-27T03:06:57Z</time>
            </trkpt>
            <trkpt lon="100.897896" lat="12.768502">
                <ele>7.830000</ele>
                <time>2016-11-27T03:07:00Z</time>
            </trkpt>
            <trkpt lon="100.897318" lat="12.769176">
                <ele>7.830000</ele>
                <time>2016-11-27T03:07:22Z</time>
            </trkpt>
            <trkpt lon="100.897355" lat="12.769455">
                <ele>7.830000</ele>
                <time>2016-11-27T03:07:30Z</time>
            </trkpt>
            <trkpt lon="100.897401" lat="12.769528">
                <ele>7.830000</ele>
                <time>2016-11-27T03:07:32Z</time>
            </trkpt>
            <trkpt lon="100.898859" lat="12.771192">
                <ele>10.230000</ele>
                <time>2016-11-27T03:08:21Z</time>
            </trkpt>
            <trkpt lon="100.899957" lat="12.772597">
                <ele>7.350000</ele>
                <time>2016-11-27T03:09:01Z</time>
            </trkpt>
            <trkpt lon="100.901786" lat="12.775229">
                <ele>8.310000</ele>
                <time>2016-11-27T03:10:14Z</time>
            </trkpt>
            <trkpt lon="100.902088" lat="12.774790">
                <ele>9.270000</ele>
                <time>2016-11-27T03:10:34Z</time>
            </trkpt>
            <trkpt lon="100.903126" lat="12.774159">
                <ele>20.320000</ele>
                <time>2016-11-27T03:11:21Z</time>
            </trkpt>
            <trkpt lon="100.904054" lat="12.773656">
                <ele>23.210000</ele>
                <time>2016-11-27T03:12:02Z</time>
            </trkpt>
            <trkpt lon="100.904209" lat="12.773559">
                <ele>28.980000</ele>
                <time>2016-11-27T03:12:18Z</time>
            </trkpt>
            <trkpt lon="100.904265" lat="12.774271">
                <ele>20.320000</ele>
                <time>2016-11-27T03:13:08Z</time>
            </trkpt>
            <trkpt lon="100.904821" lat="12.774318">
                <ele>20.320000</ele>
                <time>2016-11-27T03:13:32Z</time>
            </trkpt>
            <trkpt lon="100.905325" lat="12.773920">
                <ele>20.320000</ele>
                <time>2016-11-27T03:13:58Z</time>
            </trkpt>
            <trkpt lon="100.906385" lat="12.773476">
                <ele>25.130000</ele>
                <time>2016-11-27T03:15:02Z</time>
            </trkpt>
            <trkpt lon="100.907109" lat="12.773479">
                <ele>28.020000</ele>
                <time>2016-11-27T03:15:49Z</time>
            </trkpt>
            <trkpt lon="100.907280" lat="12.773361">
                <ele>28.020000</ele>
                <time>2016-11-27T03:16:02Z</time>
            </trkpt>
            <trkpt lon="100.907686" lat="12.773509">
                <ele>28.980000</ele>
                <time>2016-11-27T03:16:31Z</time>
            </trkpt>
            <trkpt lon="100.908051" lat="12.773409">
                <ele>30.900000</ele>
                <time>2016-11-27T03:16:56Z</time>
            </trkpt>
            <trkpt lon="100.908112" lat="12.773520">
                <ele>31.380000</ele>
                <time>2016-11-27T03:17:04Z</time>
            </trkpt>
            <trkpt lon="100.908148" lat="12.773542">
                <ele>31.380000</ele>
                <time>2016-11-27T03:17:06Z</time>
            </trkpt>
            <trkpt lon="100.908629" lat="12.773345">
                <ele>34.740000</ele>
                <time>2016-11-27T03:17:24Z</time>
            </trkpt>
            <trkpt lon="100.909758" lat="12.772800">
                <ele>40.510000</ele>
                <time>2016-11-27T03:18:07Z</time>
            </trkpt>
            <trkpt lon="100.909830" lat="12.772635">
                <ele>37.150000</ele>
                <time>2016-11-27T03:18:34Z</time>
            </trkpt>
            <trkpt lon="100.909231" lat="12.771283">
                <ele>34.740000</ele>
                <time>2016-11-27T03:19:03Z</time>
            </trkpt>
            <trkpt lon="100.908566" lat="12.769757">
                <ele>32.340000</ele>
                <time>2016-11-27T03:19:30Z</time>
            </trkpt>
            <trkpt lon="100.912510" lat="12.768128">
                <ele>46.280000</ele>
                <time>2016-11-27T03:22:03Z</time>
            </trkpt>
            <trkpt lon="100.912917" lat="12.767953">
                <ele>46.760000</ele>
                <time>2016-11-27T03:22:23Z</time>
            </trkpt>
            <trkpt lon="100.913908" lat="12.767489">
                <ele>43.400000</ele>
                <time>2016-11-27T03:23:10Z</time>
            </trkpt>
            <trkpt lon="100.914098" lat="12.766968">
                <ele>45.800000</ele>
                <time>2016-11-27T03:23:38Z</time>
            </trkpt>
            <trkpt lon="100.914112" lat="12.766659">
                <ele>43.880000</ele>
                <time>2016-11-27T03:23:50Z</time>
            </trkpt>
            <trkpt lon="100.914126" lat="12.765344">
                <ele>37.630000</ele>
                <time>2016-11-27T03:24:42Z</time>
            </trkpt>
            <trkpt lon="100.916529" lat="12.764021">
                <ele>42.920000</ele>
                <time>2016-11-27T03:25:59Z</time>
            </trkpt>
            <trkpt lon="100.916744" lat="12.763885">
                <ele>42.440000</ele>
                <time>2016-11-27T03:26:06Z</time>
            </trkpt>
            <trkpt lon="100.917505" lat="12.764419">
                <ele>41.470000</ele>
                <time>2016-11-27T03:26:30Z</time>
            </trkpt>
            <trkpt lon="100.917924" lat="12.765197">
                <ele>43.400000</ele>
                <time>2016-11-27T03:26:49Z</time>
            </trkpt>
            <trkpt lon="100.918103" lat="12.765263">
                <ele>43.400000</ele>
                <time>2016-11-27T03:26:53Z</time>
            </trkpt>
            <trkpt lon="100.918743" lat="12.765472">
                <ele>41.950000</ele>
                <time>2016-11-27T03:27:05Z</time>
            </trkpt>
            <trkpt lon="100.918934" lat="12.765454">
                <ele>41.470000</ele>
                <time>2016-11-27T03:27:08Z</time>
            </trkpt>
            <trkpt lon="100.919056" lat="12.765387">
                <ele>40.990000</ele>
                <time>2016-11-27T03:27:10Z</time>
            </trkpt>
            <trkpt lon="100.919350" lat="12.765193">
                <ele>40.030000</ele>
                <time>2016-11-27T03:27:15Z</time>
            </trkpt>
            <trkpt lon="100.919747" lat="12.765163">
                <ele>38.590000</ele>
                <time>2016-11-27T03:27:21Z</time>
            </trkpt>
            <trkpt lon="100.922675" lat="12.766990">
                <ele>33.300000</ele>
                <time>2016-11-27T03:28:15Z</time>
            </trkpt>
            <trkpt lon="100.922808" lat="12.767008">
                <ele>32.820000</ele>
                <time>2016-11-27T03:28:17Z</time>
            </trkpt>
            <trkpt lon="100.924855" lat="12.766344">
                <ele>29.940000</ele>
                <time>2016-11-27T03:28:49Z</time>
            </trkpt>
            <trkpt lon="100.925683" lat="12.765861">
                <ele>32.820000</ele>
                <time>2016-11-27T03:29:06Z</time>
            </trkpt>
            <trkpt lon="100.926330" lat="12.765587">
                <ele>31.380000</ele>
                <time>2016-11-27T03:29:21Z</time>
            </trkpt>
            <trkpt lon="100.927317" lat="12.765791">
                <ele>31.380000</ele>
                <time>2016-11-27T03:29:40Z</time>
            </trkpt>
            <trkpt lon="100.928157" lat="12.765486">
                <ele>32.340000</ele>
                <time>2016-11-27T03:29:57Z</time>
            </trkpt>
            <trkpt lon="100.928199" lat="12.765451">
                <ele>32.340000</ele>
                <time>2016-11-27T03:29:58Z</time>
            </trkpt>
            <trkpt lon="100.927743" lat="12.762463">
                <ele>33.780000</ele>
                <time>2016-11-27T03:30:58Z</time>
            </trkpt>
            <trkpt lon="100.927276" lat="12.760913">
                <ele>33.780000</ele>
                <time>2016-11-27T03:31:29Z</time>
            </trkpt>
            <trkpt lon="100.927263" lat="12.760822">
                <ele>33.780000</ele>
                <time>2016-11-27T03:31:31Z</time>
            </trkpt>
            <trkpt lon="100.927397" lat="12.760689">
                <ele>33.300000</ele>
                <time>2016-11-27T03:31:35Z</time>
            </trkpt>
            <trkpt lon="100.928471" lat="12.760428">
                <ele>31.860000</ele>
                <time>2016-11-27T03:31:53Z</time>
            </trkpt>
            <trkpt lon="100.928835" lat="12.760071">
                <ele>31.860000</ele>
                <time>2016-11-27T03:32:02Z</time>
            </trkpt>
            <trkpt lon="100.929337" lat="12.759050">
                <ele>34.740000</ele>
                <time>2016-11-27T03:32:22Z</time>
            </trkpt>
            <trkpt lon="100.930188" lat="12.756977">
                <ele>34.740000</ele>
                <time>2016-11-27T03:33:04Z</time>
            </trkpt>
            <trkpt lon="100.930162" lat="12.756886">
                <ele>34.740000</ele>
                <time>2016-11-27T03:33:06Z</time>
            </trkpt>
            <trkpt lon="100.930112" lat="12.756811">
                <ele>34.740000</ele>
                <time>2016-11-27T03:33:08Z</time>
            </trkpt>
            <trkpt lon="100.929296" lat="12.756182">
                <ele>40.030000</ele>
                <time>2016-11-27T03:33:36Z</time>
            </trkpt>
            <trkpt lon="100.929324" lat="12.756121">
                <ele>40.510000</ele>
                <time>2016-11-27T03:33:39Z</time>
            </trkpt>
            <trkpt lon="100.933260" lat="12.758280">
                <ele>38.590000</ele>
                <time>2016-11-27T03:35:32Z</time>
            </trkpt>
            <trkpt lon="100.933484" lat="12.758769">
                <ele>41.470000</ele>
                <time>2016-11-27T03:37:01Z</time>
            </trkpt>
            <trkpt lon="100.934064" lat="12.758323">
                <ele>42.440000</ele>
                <time>2016-11-27T03:37:28Z</time>
            </trkpt>
            <trkpt lon="100.934571" lat="12.757461">
                <ele>40.990000</ele>
                <time>2016-11-27T03:37:51Z</time>
            </trkpt>
            <trkpt lon="100.934875" lat="12.757162">
                <ele>40.990000</ele>
                <time>2016-11-27T03:38:04Z</time>
            </trkpt>
            <trkpt lon="100.936543" lat="12.756039">
                <ele>41.470000</ele>
                <time>2016-11-27T03:38:59Z</time>
            </trkpt>
            <trkpt lon="100.936860" lat="12.755592">
                <ele>40.510000</ele>
                <time>2016-11-27T03:39:14Z</time>
            </trkpt>
            <trkpt lon="100.938106" lat="12.755461">
                <ele>39.550000</ele>
                <time>2016-11-27T03:39:48Z</time>
            </trkpt>
            <trkpt lon="100.938505" lat="12.755117">
                <ele>39.070000</ele>
                <time>2016-11-27T03:40:01Z</time>
            </trkpt>
            <trkpt lon="100.938905" lat="12.755326">
                <ele>40.990000</ele>
                <time>2016-11-27T03:45:37Z</time>
            </trkpt>
            <trkpt lon="100.938675" lat="12.754678">
                <ele>41.950000</ele>
                <time>2016-11-27T03:46:00Z</time>
            </trkpt>
            <trkpt lon="100.938393" lat="12.754531">
                <ele>40.990000</ele>
                <time>2016-11-27T03:46:10Z</time>
            </trkpt>
            <trkpt lon="100.937740" lat="12.752821">
                <ele>40.990000</ele>
                <time>2016-11-27T03:47:11Z</time>
            </trkpt>
            <trkpt lon="100.937658" lat="12.752518">
                <ele>39.070000</ele>
                <time>2016-11-27T03:47:23Z</time>
            </trkpt>
            <trkpt lon="100.937208" lat="12.752294">
                <ele>39.070000</ele>
                <time>2016-11-27T03:47:38Z</time>
            </trkpt>
            <trkpt lon="100.937002" lat="12.751989">
                <ele>39.070000</ele>
                <time>2016-11-27T03:47:49Z</time>
            </trkpt>
            <trkpt lon="100.936312" lat="12.750109">
                <ele>39.550000</ele>
                <time>2016-11-27T03:48:57Z</time>
            </trkpt>
            <trkpt lon="100.936900" lat="12.749826">
                <ele>42.440000</ele>
                <time>2016-11-27T03:49:23Z</time>
            </trkpt>
            <trkpt lon="100.936886" lat="12.749406">
                <ele>44.840000</ele>
                <time>2016-11-27T03:49:36Z</time>
            </trkpt>
            <trkpt lon="100.936900" lat="12.748997">
                <ele>44.360000</ele>
                <time>2016-11-27T03:49:49Z</time>
            </trkpt>
            <trkpt lon="100.937950" lat="12.749346">
                <ele>44.360000</ele>
                <time>2016-11-27T03:50:26Z</time>
            </trkpt>
            <trkpt lon="100.938628" lat="12.747381">
                <ele>55.890000</ele>
                <time>2016-11-27T03:51:31Z</time>
            </trkpt>
            <trkpt lon="100.938706" lat="12.747165">
                <ele>55.410000</ele>
                <time>2016-11-27T03:51:38Z</time>
            </trkpt>
            <trkpt lon="100.939565" lat="12.747467">
                <ele>60.700000</ele>
                <time>2016-11-27T04:00:45Z</time>
            </trkpt>
            <trkpt lon="100.939885" lat="12.747384">
                <ele>64.070000</ele>
                <time>2016-11-27T04:01:03Z</time>
            </trkpt>
            <trkpt lon="100.940381" lat="12.747486">
                <ele>74.160000</ele>
                <time>2016-11-27T04:01:35Z</time>
            </trkpt>
            <trkpt lon="100.940736" lat="12.747491">
                <ele>76.080000</ele>
                <time>2016-11-27T04:02:00Z</time>
            </trkpt>
            <trkpt lon="100.941169" lat="12.747637">
                <ele>68.390000</ele>
                <time>2016-11-27T04:02:31Z</time>
            </trkpt>
            <trkpt lon="100.941317" lat="12.747741">
                <ele>63.580000</ele>
                <time>2016-11-27T04:02:41Z</time>
            </trkpt>
            <trkpt lon="100.941909" lat="12.747589">
                <ele>53.010000</ele>
                <time>2016-11-27T04:03:17Z</time>
            </trkpt>
            <trkpt lon="100.942143" lat="12.748234">
                <ele>54.450000</ele>
                <time>2016-11-27T04:03:45Z</time>
            </trkpt>
            <trkpt lon="100.942462" lat="12.749111">
                <ele>55.890000</ele>
                <time>2016-11-27T04:04:27Z</time>
            </trkpt>
            <trkpt lon="100.942899" lat="12.748871">
                <ele>60.700000</ele>
                <time>2016-11-27T04:04:53Z</time>
            </trkpt>
            <trkpt lon="100.943134" lat="12.748559">
                <ele>61.180000</ele>
                <time>2016-11-27T04:05:10Z</time>
            </trkpt>
            <trkpt lon="100.943750" lat="12.747834">
                <ele>62.620000</ele>
                <time>2016-11-27T04:05:42Z</time>
            </trkpt>
            <trkpt lon="100.945426" lat="12.748232">
                <ele>72.240000</ele>
                <time>2016-11-27T04:06:52Z</time>
            </trkpt>
            <trkpt lon="100.946219" lat="12.747918">
                <ele>87.140000</ele>
                <time>2016-11-27T04:08:08Z</time>
            </trkpt>
            <trkpt lon="100.947343" lat="12.747303">
                <ele>95.310000</ele>
                <time>2016-11-27T04:09:22Z</time>
            </trkpt>
            <trkpt lon="100.948314" lat="12.747335">
                <ele>90.020000</ele>
                <time>2016-11-27T04:09:49Z</time>
            </trkpt>
            <trkpt lon="100.948948" lat="12.746863">
                <ele>83.290000</ele>
                <time>2016-11-27T04:10:05Z</time>
            </trkpt>
            <trkpt lon="100.949124" lat="12.746726">
                <ele>79.450000</ele>
                <time>2016-11-27T04:10:09Z</time>
            </trkpt>
            <trkpt lon="100.949214" lat="12.746641">
                <ele>78.000000</ele>
                <time>2016-11-27T04:10:11Z</time>
            </trkpt>
            <trkpt lon="100.950224" lat="12.746003">
                <ele>70.310000</ele>
                <time>2016-11-27T04:10:29Z</time>
            </trkpt>
            <trkpt lon="100.951222" lat="12.745208">
                <ele>66.950000</ele>
                <time>2016-11-27T04:10:54Z</time>
            </trkpt>
            <trkpt lon="100.951249" lat="12.744937">
                <ele>66.470000</ele>
                <time>2016-11-27T04:11:08Z</time>
            </trkpt>
            <trkpt lon="100.951163" lat="12.744912">
                <ele>65.510000</ele>
                <time>2016-11-27T04:11:13Z</time>
            </trkpt>
            <trkpt lon="100.951263" lat="12.744985">
                <ele>65.990000</ele>
                <time>2016-11-27T04:11:23Z</time>
            </trkpt>
            <trkpt lon="100.951134" lat="12.745288">
                <ele>66.470000</ele>
                <time>2016-11-27T04:11:43Z</time>
            </trkpt>
            <trkpt lon="100.950711" lat="12.745649">
                <ele>68.870000</ele>
                <time>2016-11-27T04:12:12Z</time>
            </trkpt>
            <trkpt lon="100.951208" lat="12.745217">
                <ele>67.430000</ele>
                <time>2016-11-27T04:12:33Z</time>
            </trkpt>
            <trkpt lon="100.951315" lat="12.744959">
                <ele>66.470000</ele>
                <time>2016-11-27T04:12:42Z</time>
            </trkpt>
            <trkpt lon="100.951207" lat="12.744914">
                <ele>66.470000</ele>
                <time>2016-11-27T04:12:46Z</time>
            </trkpt>
            <trkpt lon="100.950846" lat="12.744558">
                <ele>63.580000</ele>
                <time>2016-11-27T04:13:09Z</time>
            </trkpt>
            <trkpt lon="100.951054" lat="12.744805">
                <ele>64.070000</ele>
                <time>2016-11-27T04:13:41Z</time>
            </trkpt>
            <trkpt lon="100.950663" lat="12.744355">
                <ele>63.580000</ele>
                <time>2016-11-27T04:13:54Z</time>
            </trkpt>
            <trkpt lon="100.950299" lat="12.743559">
                <ele>59.740000</ele>
                <time>2016-11-27T04:14:08Z</time>
            </trkpt>
            <trkpt lon="100.950273" lat="12.743355">
                <ele>58.780000</ele>
                <time>2016-11-27T04:14:11Z</time>
            </trkpt>
            <trkpt lon="100.950339" lat="12.743082">
                <ele>57.340000</ele>
                <time>2016-11-27T04:14:15Z</time>
            </trkpt>
            <trkpt lon="100.950948" lat="12.742080">
                <ele>52.530000</ele>
                <time>2016-11-27T04:14:32Z</time>
            </trkpt>
            <trkpt lon="100.950984" lat="12.741770">
                <ele>52.530000</ele>
                <time>2016-11-27T04:14:37Z</time>
            </trkpt>
            <trkpt lon="100.950963" lat="12.741654">
                <ele>53.010000</ele>
                <time>2016-11-27T04:14:39Z</time>
            </trkpt>
            <trkpt lon="100.950459" lat="12.740774">
                <ele>51.090000</ele>
                <time>2016-11-27T04:14:55Z</time>
            </trkpt>
            <trkpt lon="100.949853" lat="12.740169">
                <ele>53.010000</ele>
                <time>2016-11-27T04:15:15Z</time>
            </trkpt>
            <trkpt lon="100.948310" lat="12.741618">
                <ele>52.050000</ele>
                <time>2016-11-27T04:16:01Z</time>
            </trkpt>
            <trkpt lon="100.948823" lat="12.742775">
                <ele>54.450000</ele>
                <time>2016-11-27T04:16:43Z</time>
            </trkpt>
            <trkpt lon="100.948843" lat="12.742868">
                <ele>54.450000</ele>
                <time>2016-11-27T04:16:48Z</time>
            </trkpt>
            <trkpt lon="100.948644" lat="12.742769">
                <ele>54.930000</ele>
                <time>2016-11-27T04:17:07Z</time>
            </trkpt>
            <trkpt lon="100.948360" lat="12.742871">
                <ele>53.970000</ele>
                <time>2016-11-27T04:17:20Z</time>
            </trkpt>
            <trkpt lon="100.948028" lat="12.743268">
                <ele>55.890000</ele>
                <time>2016-11-27T04:17:49Z</time>
            </trkpt>
            <trkpt lon="100.947677" lat="12.743198">
                <ele>56.860000</ele>
                <time>2016-11-27T04:18:14Z</time>
            </trkpt>
            <trkpt lon="100.947583" lat="12.743254">
                <ele>55.890000</ele>
                <time>2016-11-27T04:18:27Z</time>
            </trkpt>
            <trkpt lon="100.947796" lat="12.743217">
                <ele>56.860000</ele>
                <time>2016-11-27T04:18:47Z</time>
            </trkpt>
            <trkpt lon="100.947658" lat="12.743081">
                <ele>57.820000</ele>
                <time>2016-11-27T04:19:06Z</time>
            </trkpt>
            <trkpt lon="100.947009" lat="12.743475">
                <ele>68.870000</ele>
                <time>2016-11-27T04:20:23Z</time>
            </trkpt>
            <trkpt lon="100.946826" lat="12.743458">
                <ele>73.200000</ele>
                <time>2016-11-27T04:20:37Z</time>
            </trkpt>
            <trkpt lon="100.946633" lat="12.743436">
                <ele>74.160000</ele>
                <time>2016-11-27T04:20:52Z</time>
            </trkpt>
            <trkpt lon="100.946345" lat="12.743348">
                <ele>74.640000</ele>
                <time>2016-11-27T04:21:06Z</time>
            </trkpt>
            <trkpt lon="100.946244" lat="12.742820">
                <ele>69.830000</ele>
                <time>2016-11-27T04:21:27Z</time>
            </trkpt>
            <trkpt lon="100.946530" lat="12.742015">
                <ele>66.950000</ele>
                <time>2016-11-27T04:21:53Z</time>
            </trkpt>
            <trkpt lon="100.947258" lat="12.741349">
                <ele>57.820000</ele>
                <time>2016-11-27T04:22:22Z</time>
            </trkpt>
            <trkpt lon="100.947640" lat="12.740948">
                <ele>53.490000</ele>
                <time>2016-11-27T04:22:41Z</time>
            </trkpt>
            <trkpt lon="100.947589" lat="12.740558">
                <ele>51.090000</ele>
                <time>2016-11-27T04:22:53Z</time>
            </trkpt>
            <trkpt lon="100.947222" lat="12.740242">
                <ele>52.530000</ele>
                <time>2016-11-27T04:23:06Z</time>
            </trkpt>
            <trkpt lon="100.946881" lat="12.740154">
                <ele>55.410000</ele>
                <time>2016-11-27T04:23:19Z</time>
            </trkpt>
            <trkpt lon="100.946381" lat="12.740081">
                <ele>53.490000</ele>
                <time>2016-11-27T04:23:37Z</time>
            </trkpt>
            <trkpt lon="100.946032" lat="12.740361">
                <ele>55.890000</ele>
                <time>2016-11-27T04:23:54Z</time>
            </trkpt>
            <trkpt lon="100.945587" lat="12.740832">
                <ele>60.700000</ele>
                <time>2016-11-27T04:24:25Z</time>
            </trkpt>
            <trkpt lon="100.943939" lat="12.740990">
                <ele>52.530000</ele>
                <time>2016-11-27T04:25:14Z</time>
            </trkpt>
            <trkpt lon="100.943344" lat="12.741352">
                <ele>52.050000</ele>
                <time>2016-11-27T04:25:30Z</time>
            </trkpt>
            <trkpt lon="100.942191" lat="12.742089">
                <ele>49.650000</ele>
                <time>2016-11-27T04:26:01Z</time>
            </trkpt>
            <trkpt lon="100.942108" lat="12.741942">
                <ele>50.610000</ele>
                <time>2016-11-27T04:26:09Z</time>
            </trkpt>
            <trkpt lon="100.942380" lat="12.741543">
                <ele>48.200000</ele>
                <time>2016-11-27T04:26:25Z</time>
            </trkpt>
            <trkpt lon="100.944178" lat="12.740500">
                <ele>50.130000</ele>
                <time>2016-11-27T04:27:23Z</time>
            </trkpt>
            <trkpt lon="100.944851" lat="12.739827">
                <ele>51.570000</ele>
                <time>2016-11-27T04:27:57Z</time>
            </trkpt>
            <trkpt lon="100.945258" lat="12.739748">
                <ele>50.610000</ele>
                <time>2016-11-27T04:28:10Z</time>
            </trkpt>
            <trkpt lon="100.945781" lat="12.739410">
                <ele>51.570000</ele>
                <time>2016-11-27T04:28:27Z</time>
            </trkpt>
            <trkpt lon="100.947030" lat="12.738557">
                <ele>52.050000</ele>
                <time>2016-11-27T04:29:04Z</time>
            </trkpt>
            <trkpt lon="100.947626" lat="12.738135">
                <ele>50.610000</ele>
                <time>2016-11-27T04:29:21Z</time>
            </trkpt>
            <trkpt lon="100.949113" lat="12.737166">
                <ele>50.130000</ele>
                <time>2016-11-27T04:30:01Z</time>
            </trkpt>
            <trkpt lon="100.949226" lat="12.736983">
                <ele>50.130000</ele>
                <time>2016-11-27T04:30:05Z</time>
            </trkpt>
            <trkpt lon="100.948288" lat="12.734769">
                <ele>54.450000</ele>
                <time>2016-11-27T04:30:53Z</time>
            </trkpt>
            <trkpt lon="100.947141" lat="12.734581">
                <ele>57.340000</ele>
                <time>2016-11-27T04:32:48Z</time>
            </trkpt>
            <trkpt lon="100.947211" lat="12.734460">
                <ele>53.010000</ele>
                <time>2016-11-27T04:37:13Z</time>
            </trkpt>
            <trkpt lon="100.946926" lat="12.734353">
                <ele>52.050000</ele>
                <time>2016-11-27T04:37:37Z</time>
            </trkpt>
            <trkpt lon="100.946799" lat="12.734264">
                <ele>52.530000</ele>
                <time>2016-11-27T04:37:41Z</time>
            </trkpt>
            <trkpt lon="100.945470" lat="12.730743">
                <ele>55.890000</ele>
                <time>2016-11-27T04:39:00Z</time>
            </trkpt>
            <trkpt lon="100.946795" lat="12.729865">
                <ele>65.990000</ele>
                <time>2016-11-27T04:39:53Z</time>
            </trkpt>
            <trkpt lon="100.947256" lat="12.729672">
                <ele>67.430000</ele>
                <time>2016-11-27T04:40:11Z</time>
            </trkpt>
            <trkpt lon="100.947568" lat="12.729350">
                <ele>63.100000</ele>
                <time>2016-11-27T04:40:22Z</time>
            </trkpt>
            <trkpt lon="100.947620" lat="12.728836">
                <ele>65.990000</ele>
                <time>2016-11-27T04:40:52Z</time>
            </trkpt>
            <trkpt lon="100.947368" lat="12.728664">
                <ele>72.240000</ele>
                <time>2016-11-27T04:41:23Z</time>
            </trkpt>
            <trkpt lon="100.947144" lat="12.728294">
                <ele>77.040000</ele>
                <time>2016-11-27T04:41:47Z</time>
            </trkpt>
            <trkpt lon="100.946236" lat="12.726789">
                <ele>71.270000</ele>
                <time>2016-11-27T04:43:01Z</time>
            </trkpt>
            <trkpt lon="100.946585" lat="12.726626">
                <ele>71.760000</ele>
                <time>2016-11-27T04:43:27Z</time>
            </trkpt>
            <trkpt lon="100.946839" lat="12.726467">
                <ele>74.640000</ele>
                <time>2016-11-27T04:43:46Z</time>
            </trkpt>
            <trkpt lon="100.946943" lat="12.726266">
                <ele>77.040000</ele>
                <time>2016-11-27T04:44:00Z</time>
            </trkpt>
            <trkpt lon="100.946819" lat="12.725776">
                <ele>83.290000</ele>
                <time>2016-11-27T04:44:34Z</time>
            </trkpt>
            <trkpt lon="100.946802" lat="12.725088">
                <ele>85.210000</ele>
                <time>2016-11-27T04:45:02Z</time>
            </trkpt>
            <trkpt lon="100.946116" lat="12.724998">
                <ele>77.040000</ele>
                <time>2016-11-27T04:45:24Z</time>
            </trkpt>
            <trkpt lon="100.946046" lat="12.724783">
                <ele>75.600000</ele>
                <time>2016-11-27T04:45:35Z</time>
            </trkpt>
            <trkpt lon="100.946131" lat="12.724475">
                <ele>73.680000</ele>
                <time>2016-11-27T04:45:49Z</time>
            </trkpt>
            <trkpt lon="100.946362" lat="12.724293">
                <ele>73.680000</ele>
                <time>2016-11-27T04:46:00Z</time>
            </trkpt>
            <trkpt lon="100.946864" lat="12.723770">
                <ele>73.200000</ele>
                <time>2016-11-27T04:46:21Z</time>
            </trkpt>
            <trkpt lon="100.947128" lat="12.723444">
                <ele>70.310000</ele>
                <time>2016-11-27T04:46:30Z</time>
            </trkpt>
            <trkpt lon="100.947065" lat="12.723113">
                <ele>67.430000</ele>
                <time>2016-11-27T04:46:39Z</time>
            </trkpt>
            <trkpt lon="100.948264" lat="12.723502">
                <ele>83.290000</ele>
                <time>2016-11-27T04:47:44Z</time>
            </trkpt>
            <trkpt lon="100.948432" lat="12.723266">
                <ele>81.850000</ele>
                <time>2016-11-27T04:48:00Z</time>
            </trkpt>
            <trkpt lon="100.948426" lat="12.722926">
                <ele>79.450000</ele>
                <time>2016-11-27T04:48:12Z</time>
            </trkpt>
            <trkpt lon="100.948260" lat="12.722208">
                <ele>78.000000</ele>
                <time>2016-11-27T04:48:41Z</time>
            </trkpt>
            <trkpt lon="100.947335" lat="12.722195">
                <ele>65.510000</ele>
                <time>2016-11-27T04:49:10Z</time>
            </trkpt>
            <trkpt lon="100.947207" lat="12.721456">
                <ele>69.350000</ele>
                <time>2016-11-27T04:49:41Z</time>
            </trkpt>
            <trkpt lon="100.947226" lat="12.720807">
                <ele>69.830000</ele>
                <time>2016-11-27T04:50:00Z</time>
            </trkpt>
            <trkpt lon="100.947016" lat="12.720746">
                <ele>67.430000</ele>
                <time>2016-11-27T04:50:05Z</time>
            </trkpt>
            <trkpt lon="100.945776" lat="12.720365">
                <ele>58.300000</ele>
                <time>2016-11-27T04:50:31Z</time>
            </trkpt>
            <trkpt lon="100.945583" lat="12.720072">
                <ele>56.370000</ele>
                <time>2016-11-27T04:50:39Z</time>
            </trkpt>
            <trkpt lon="100.945255" lat="12.719475">
                <ele>55.890000</ele>
                <time>2016-11-27T04:50:58Z</time>
            </trkpt>
            <trkpt lon="100.944903" lat="12.719598">
                <ele>54.930000</ele>
                <time>2016-11-27T04:51:20Z</time>
            </trkpt>
            <trkpt lon="100.944706" lat="12.719448">
                <ele>55.410000</ele>
                <time>2016-11-27T04:51:32Z</time>
            </trkpt>
            <trkpt lon="100.944312" lat="12.718585">
                <ele>56.370000</ele>
                <time>2016-11-27T04:52:09Z</time>
            </trkpt>
            <trkpt lon="100.944224" lat="12.717874">
                <ele>56.860000</ele>
                <time>2016-11-27T04:52:32Z</time>
            </trkpt>
            <trkpt lon="100.942948" lat="12.718374">
                <ele>62.140000</ele>
                <time>2016-11-27T04:53:22Z</time>
            </trkpt>
            <trkpt lon="100.942643" lat="12.716717">
                <ele>61.660000</ele>
                <time>2016-11-27T04:54:38Z</time>
            </trkpt>
            <trkpt lon="100.943043" lat="12.719919">
                <ele>62.140000</ele>
                <time>2016-11-27T04:56:07Z</time>
            </trkpt>
            <trkpt lon="100.942918" lat="12.718348">
                <ele>62.140000</ele>
                <time>2016-11-27T04:56:40Z</time>
            </trkpt>
            <trkpt lon="100.942455" lat="12.716157">
                <ele>58.780000</ele>
                <time>2016-11-27T04:57:23Z</time>
            </trkpt>
            <trkpt lon="100.942446" lat="12.716141">
                <ele>58.780000</ele>
                <time>2016-11-27T04:57:40Z</time>
            </trkpt>
            <trkpt lon="100.940281" lat="12.716442">
                <ele>77.520000</ele>
                <time>2016-11-27T05:00:30Z</time>
            </trkpt>
            <trkpt lon="100.940175" lat="12.716272">
                <ele>76.080000</ele>
                <time>2016-11-27T05:01:03Z</time>
            </trkpt>
            <trkpt lon="100.940046" lat="12.716222">
                <ele>75.120000</ele>
                <time>2016-11-27T05:01:09Z</time>
            </trkpt>
            <trkpt lon="100.939996" lat="12.715973">
                <ele>76.560000</ele>
                <time>2016-11-27T05:01:21Z</time>
            </trkpt>
            <trkpt lon="100.939980" lat="12.715595">
                <ele>74.160000</ele>
                <time>2016-11-27T05:01:35Z</time>
            </trkpt>
            <trkpt lon="100.939607" lat="12.715089">
                <ele>73.680000</ele>
                <time>2016-11-27T05:01:58Z</time>
            </trkpt>
            <trkpt lon="100.938817" lat="12.715013">
                <ele>77.040000</ele>
                <time>2016-11-27T05:02:27Z</time>
            </trkpt>
            <trkpt lon="100.938045" lat="12.715041">
                <ele>73.680000</ele>
                <time>2016-11-27T05:02:50Z</time>
            </trkpt>
            <trkpt lon="100.937618" lat="12.712986">
                <ele>70.790000</ele>
                <time>2016-11-27T05:03:57Z</time>
            </trkpt>
            <trkpt lon="100.937062" lat="12.712251">
                <ele>66.950000</ele>
                <time>2016-11-27T05:04:14Z</time>
            </trkpt>
            <trkpt lon="100.936911" lat="12.711771">
                <ele>65.030000</ele>
                <time>2016-11-27T05:04:28Z</time>
            </trkpt>
            <trkpt lon="100.937430" lat="12.711073">
                <ele>63.100000</ele>
                <time>2016-11-27T05:04:54Z</time>
            </trkpt>
            <trkpt lon="100.936429" lat="12.712431">
                <ele>68.870000</ele>
                <time>2016-11-27T05:06:20Z</time>
            </trkpt>
            <trkpt lon="100.936169" lat="12.712470">
                <ele>70.790000</ele>
                <time>2016-11-27T05:06:32Z</time>
            </trkpt>
            <trkpt lon="100.935877" lat="12.712267">
                <ele>72.240000</ele>
                <time>2016-11-27T05:06:47Z</time>
            </trkpt>
            <trkpt lon="100.935567" lat="12.712089">
                <ele>70.790000</ele>
                <time>2016-11-27T05:06:57Z</time>
            </trkpt>
            <trkpt lon="100.935016" lat="12.711273">
                <ele>61.660000</ele>
                <time>2016-11-27T05:07:16Z</time>
            </trkpt>
            <trkpt lon="100.934574" lat="12.711809">
                <ele>64.550000</ele>
                <time>2016-11-27T05:07:36Z</time>
            </trkpt>
            <trkpt lon="100.934170" lat="12.711984">
                <ele>67.910000</ele>
                <time>2016-11-27T05:07:50Z</time>
            </trkpt>
            <trkpt lon="100.932889" lat="12.712125">
                <ele>78.000000</ele>
                <time>2016-11-27T05:08:43Z</time>
            </trkpt>
            <trkpt lon="100.932496" lat="12.712294">
                <ele>80.890000</ele>
                <time>2016-11-27T05:09:01Z</time>
            </trkpt>
            <trkpt lon="100.931999" lat="12.712390">
                <ele>81.850000</ele>
                <time>2016-11-27T05:09:19Z</time>
            </trkpt>
            <trkpt lon="100.931052" lat="12.712240">
                <ele>79.930000</ele>
                <time>2016-11-27T05:09:41Z</time>
            </trkpt>
            <trkpt lon="100.930526" lat="12.712466">
                <ele>82.810000</ele>
                <time>2016-11-27T05:10:04Z</time>
            </trkpt>
            <trkpt lon="100.929740" lat="12.712703">
                <ele>79.450000</ele>
                <time>2016-11-27T05:10:26Z</time>
            </trkpt>
            <trkpt lon="100.929670" lat="12.713274">
                <ele>80.410000</ele>
                <time>2016-11-27T05:10:48Z</time>
            </trkpt>
            <trkpt lon="100.929777" lat="12.713657">
                <ele>82.810000</ele>
                <time>2016-11-27T05:11:01Z</time>
            </trkpt>
            <trkpt lon="100.930526" lat="12.715345">
                <ele>89.540000</ele>
                <time>2016-11-27T05:12:19Z</time>
            </trkpt>
            <trkpt lon="100.931148" lat="12.717235">
                <ele>96.750000</ele>
                <time>2016-11-27T05:13:47Z</time>
            </trkpt>
            <trkpt lon="100.931481" lat="12.717833">
                <ele>98.190000</ele>
                <time>2016-11-27T05:14:19Z</time>
            </trkpt>
            <trkpt lon="100.931604" lat="12.718063">
                <ele>99.150000</ele>
                <time>2016-11-27T05:14:37Z</time>
            </trkpt>
            <trkpt lon="100.931765" lat="12.718350">
                <ele>101.560000</ele>
                <time>2016-11-27T05:14:53Z</time>
            </trkpt>
            <trkpt lon="100.932267" lat="12.719440">
                <ele>103.960000</ele>
                <time>2016-11-27T05:15:40Z</time>
            </trkpt>
            <trkpt lon="100.932628" lat="12.719893">
                <ele>102.520000</ele>
                <time>2016-11-27T05:15:59Z</time>
            </trkpt>
            <trkpt lon="100.932772" lat="12.720134">
                <ele>103.960000</ele>
                <time>2016-11-27T05:16:28Z</time>
            </trkpt>
            <trkpt lon="100.933099" lat="12.720715">
                <ele>103.960000</ele>
                <time>2016-11-27T05:18:05Z</time>
            </trkpt>
            <trkpt lon="100.933573" lat="12.721103">
                <ele>123.190000</ele>
                <time>2016-11-27T05:19:13Z</time>
            </trkpt>
            <trkpt lon="100.934095" lat="12.721317">
                <ele>134.240000</ele>
                <time>2016-11-27T05:19:52Z</time>
            </trkpt>
            <trkpt lon="100.934510" lat="12.721622">
                <ele>136.160000</ele>
                <time>2016-11-27T05:20:17Z</time>
            </trkpt>
            <trkpt lon="100.934906" lat="12.721689">
                <ele>133.760000</ele>
                <time>2016-11-27T05:20:33Z</time>
            </trkpt>
            <trkpt lon="100.935193" lat="12.721872">
                <ele>126.070000</ele>
                <time>2016-11-27T05:21:02Z</time>
            </trkpt>
            <trkpt lon="100.935380" lat="12.722337">
                <ele>138.570000</ele>
                <time>2016-11-27T05:22:01Z</time>
            </trkpt>
            <trkpt lon="100.935288" lat="12.722524">
                <ele>137.130000</ele>
                <time>2016-11-27T05:22:32Z</time>
            </trkpt>
            <trkpt lon="100.935412" lat="12.722859">
                <ele>140.010000</ele>
                <time>2016-11-27T05:23:01Z</time>
            </trkpt>
            <trkpt lon="100.935591" lat="12.722894">
                <ele>142.410000</ele>
                <time>2016-11-27T05:23:13Z</time>
            </trkpt>
            <trkpt lon="100.935707" lat="12.722891">
                <ele>141.930000</ele>
                <time>2016-11-27T05:23:19Z</time>
            </trkpt>
            <trkpt lon="100.935848" lat="12.722785">
                <ele>130.880000</ele>
                <time>2016-11-27T05:23:33Z</time>
            </trkpt>
            <trkpt lon="100.935926" lat="12.722658">
                <ele>120.780000</ele>
                <time>2016-11-27T05:23:45Z</time>
            </trkpt>
            <trkpt lon="100.936336" lat="12.722580">
                <ele>117.420000</ele>
                <time>2016-11-27T05:24:21Z</time>
            </trkpt>
            <trkpt lon="100.936512" lat="12.722854">
                <ele>119.340000</ele>
                <time>2016-11-27T05:24:44Z</time>
            </trkpt>
            <trkpt lon="100.936817" lat="12.722958">
                <ele>114.050000</ele>
                <time>2016-11-27T05:24:56Z</time>
            </trkpt>
            <trkpt lon="100.937254" lat="12.722823">
                <ele>109.730000</ele>
                <time>2016-11-27T05:25:19Z</time>
            </trkpt>
            <trkpt lon="100.937451" lat="12.722861">
                <ele>111.170000</ele>
                <time>2016-11-27T05:25:33Z</time>
            </trkpt>
            <trkpt lon="100.937508" lat="12.722997">
                <ele>110.690000</ele>
                <time>2016-11-27T05:25:46Z</time>
            </trkpt>
            <trkpt lon="100.937110" lat="12.725048">
                <ele>91.460000</ele>
                <time>2016-11-27T05:27:28Z</time>
            </trkpt>
            <trkpt lon="100.936687" lat="12.726031">
                <ele>81.850000</ele>
                <time>2016-11-27T05:27:52Z</time>
            </trkpt>
            <trkpt lon="100.936720" lat="12.727357">
                <ele>78.000000</ele>
                <time>2016-11-27T05:28:25Z</time>
            </trkpt>
            <trkpt lon="100.936816" lat="12.728143">
                <ele>75.600000</ele>
                <time>2016-11-27T05:28:42Z</time>
            </trkpt>
            <trkpt lon="100.936698" lat="12.728434">
                <ele>74.160000</ele>
                <time>2016-11-27T05:28:50Z</time>
            </trkpt>
            <trkpt lon="100.935454" lat="12.728885">
                <ele>74.640000</ele>
                <time>2016-11-27T05:29:23Z</time>
            </trkpt>
            <trkpt lon="100.935632" lat="12.729621">
                <ele>73.200000</ele>
                <time>2016-11-27T05:29:47Z</time>
            </trkpt>
            <trkpt lon="100.935719" lat="12.729894">
                <ele>72.240000</ele>
                <time>2016-11-27T05:30:05Z</time>
            </trkpt>
            <trkpt lon="100.935611" lat="12.730308">
                <ele>71.270000</ele>
                <time>2016-11-27T05:30:16Z</time>
            </trkpt>
            <trkpt lon="100.935174" lat="12.730505">
                <ele>70.310000</ele>
                <time>2016-11-27T05:30:29Z</time>
            </trkpt>
            <trkpt lon="100.934911" lat="12.730834">
                <ele>68.390000</ele>
                <time>2016-11-27T05:30:42Z</time>
            </trkpt>
            <trkpt lon="100.934722" lat="12.731439">
                <ele>66.950000</ele>
                <time>2016-11-27T05:30:56Z</time>
            </trkpt>
            <trkpt lon="100.934711" lat="12.731542">
                <ele>66.470000</ele>
                <time>2016-11-27T05:30:58Z</time>
            </trkpt>
            <trkpt lon="100.933890" lat="12.732778">
                <ele>62.620000</ele>
                <time>2016-11-27T05:31:46Z</time>
            </trkpt>
            <trkpt lon="100.933877" lat="12.732784">
                <ele>65.030000</ele>
                <time>2016-11-27T05:32:24Z</time>
            </trkpt>
            <trkpt lon="100.933859" lat="12.732783">
                <ele>65.030000</ele>
                <time>2016-11-27T05:32:25Z</time>
            </trkpt>
            <trkpt lon="100.933502" lat="12.732745">
                <ele>63.580000</ele>
                <time>2016-11-27T05:32:36Z</time>
            </trkpt>
            <trkpt lon="100.932517" lat="12.732623">
                <ele>62.620000</ele>
                <time>2016-11-27T05:32:56Z</time>
            </trkpt>
            <trkpt lon="100.931449" lat="12.732526">
                <ele>60.700000</ele>
                <time>2016-11-27T05:33:14Z</time>
            </trkpt>
            <trkpt lon="100.930366" lat="12.732490">
                <ele>61.180000</ele>
                <time>2016-11-27T05:33:33Z</time>
            </trkpt>
            <trkpt lon="100.926252" lat="12.732608">
                <ele>64.070000</ele>
                <time>2016-11-27T05:34:53Z</time>
            </trkpt>
            <trkpt lon="100.921084" lat="12.732764">
                <ele>56.860000</ele>
                <time>2016-11-27T05:36:08Z</time>
            </trkpt>
            <trkpt lon="100.919759" lat="12.732674">
                <ele>56.370000</ele>
                <time>2016-11-27T05:36:27Z</time>
            </trkpt>
            <trkpt lon="100.914533" lat="12.731858">
                <ele>59.260000</ele>
                <time>2016-11-27T05:37:50Z</time>
            </trkpt>
            <trkpt lon="100.911881" lat="12.731494">
                <ele>57.340000</ele>
                <time>2016-11-27T05:38:34Z</time>
            </trkpt>
            <trkpt lon="100.911453" lat="12.734108">
                <ele>66.950000</ele>
                <time>2016-11-27T05:39:38Z</time>
            </trkpt>
            <trkpt lon="100.911187" lat="12.734753">
                <ele>69.350000</ele>
                <time>2016-11-27T05:39:57Z</time>
            </trkpt>
            <trkpt lon="100.910120" lat="12.735895">
                <ele>67.910000</ele>
                <time>2016-11-27T05:40:34Z</time>
            </trkpt>
            <trkpt lon="100.908738" lat="12.737744">
                <ele>55.890000</ele>
                <time>2016-11-27T05:41:06Z</time>
            </trkpt>
            <trkpt lon="100.907717" lat="12.740694">
                <ele>43.880000</ele>
                <time>2016-11-27T05:41:42Z</time>
            </trkpt>
            <trkpt lon="100.907644" lat="12.741210">
                <ele>42.920000</ele>
                <time>2016-11-27T05:41:49Z</time>
            </trkpt>
            <trkpt lon="100.907800" lat="12.742030">
                <ele>42.440000</ele>
                <time>2016-11-27T05:42:00Z</time>
            </trkpt>
            <trkpt lon="100.907794" lat="12.742106">
                <ele>41.950000</ele>
                <time>2016-11-27T05:42:01Z</time>
            </trkpt>
            <trkpt lon="100.907628" lat="12.742365">
                <ele>41.470000</ele>
                <time>2016-11-27T05:42:05Z</time>
            </trkpt>
            <trkpt lon="100.906485" lat="12.743059">
                <ele>36.670000</ele>
                <time>2016-11-27T05:42:21Z</time>
            </trkpt>
            <trkpt lon="100.905400" lat="12.743962">
                <ele>32.820000</ele>
                <time>2016-11-27T05:42:37Z</time>
            </trkpt>
            <trkpt lon="100.904668" lat="12.744741">
                <ele>29.460000</ele>
                <time>2016-11-27T05:42:50Z</time>
            </trkpt>
            <trkpt lon="100.904090" lat="12.745163">
                <ele>28.500000</ele>
                <time>2016-11-27T05:43:01Z</time>
            </trkpt>
            <trkpt lon="100.904093" lat="12.745237">
                <ele>28.020000</ele>
                <time>2016-11-27T05:43:03Z</time>
            </trkpt>
            <trkpt lon="100.904835" lat="12.747724">
                <ele>30.420000</ele>
                <time>2016-11-27T05:43:59Z</time>
            </trkpt>
            <trkpt lon="100.904744" lat="12.748381">
                <ele>29.940000</ele>
                <time>2016-11-27T05:44:11Z</time>
            </trkpt>
            <trkpt lon="100.903199" lat="12.748844">
                <ele>24.650000</ele>
                <time>2016-11-27T05:44:35Z</time>
            </trkpt>
            <trkpt lon="100.902757" lat="12.749168">
                <ele>23.210000</ele>
                <time>2016-11-27T05:44:43Z</time>
            </trkpt>
            <trkpt lon="100.902608" lat="12.749593">
                <ele>22.730000</ele>
                <time>2016-11-27T05:44:50Z</time>
            </trkpt>
            <trkpt lon="100.902358" lat="12.749852">
                <ele>22.730000</ele>
                <time>2016-11-27T05:44:56Z</time>
            </trkpt>
            <trkpt lon="100.901824" lat="12.750080">
                <ele>20.810000</ele>
                <time>2016-11-27T05:45:05Z</time>
            </trkpt>
            <trkpt lon="100.901410" lat="12.750602">
                <ele>18.880000</ele>
                <time>2016-11-27T05:45:16Z</time>
            </trkpt>
            <trkpt lon="100.901092" lat="12.750784">
                <ele>18.400000</ele>
                <time>2016-11-27T05:45:29Z</time>
            </trkpt>
            <trkpt lon="100.900957" lat="12.750854">
                <ele>19.840000</ele>
                <time>2016-11-27T05:45:50Z</time>
            </trkpt>
            <trkpt lon="100.900360" lat="12.751151">
                <ele>17.920000</ele>
                <time>2016-11-27T05:46:05Z</time>
            </trkpt>
            <trkpt lon="100.900259" lat="12.751333">
                <ele>16.960000</ele>
                <time>2016-11-27T05:46:13Z</time>
            </trkpt>
            <trkpt lon="100.902550" lat="12.756446">
                <ele>19.840000</ele>
                <time>2016-11-27T05:48:20Z</time>
            </trkpt>
            <trkpt lon="100.903062" lat="12.758021">
                <ele>19.840000</ele>
                <time>2016-11-27T05:49:04Z</time>
            </trkpt>
            <trkpt lon="100.902128" lat="12.758426">
                <ele>17.920000</ele>
                <time>2016-11-27T05:49:39Z</time>
            </trkpt>
            <trkpt lon="100.901624" lat="12.759169">
                <ele>19.360000</ele>
                <time>2016-11-27T05:49:58Z</time>
            </trkpt>
            <trkpt lon="100.900265" lat="12.760684">
                <ele>18.400000</ele>
                <time>2016-11-27T05:50:40Z</time>
            </trkpt>
            <trkpt lon="100.900186" lat="12.760784">
                <ele>18.880000</ele>
                <time>2016-11-27T05:50:43Z</time>
            </trkpt>
            <trkpt lon="100.900119" lat="12.760837">
                <ele>18.400000</ele>
                <time>2016-11-27T05:50:45Z</time>
            </trkpt>
            <trkpt lon="100.897703" lat="12.761805">
                <ele>15.040000</ele>
                <time>2016-11-27T05:51:32Z</time>
            </trkpt>
            <trkpt lon="100.897717" lat="12.762017">
                <ele>18.880000</ele>
                <time>2016-11-27T05:51:37Z</time>
            </trkpt>
            <trkpt lon="100.898120" lat="12.762666">
                <ele>22.250000</ele>
                <time>2016-11-27T05:51:52Z</time>
            </trkpt>
            <trkpt lon="100.898175" lat="12.762747">
                <ele>22.250000</ele>
                <time>2016-11-27T05:51:54Z</time>
            </trkpt>
            <trkpt lon="100.898524" lat="12.763741">
                <ele>15.520000</ele>
                <time>2016-11-27T05:52:18Z</time>
            </trkpt>
            <trkpt lon="100.897919" lat="12.764604">
                <ele>13.600000</ele>
                <time>2016-11-27T05:52:45Z</time>
            </trkpt>
            <trkpt lon="100.897889" lat="12.764575">
                <ele>14.080000</ele>
                <time>2016-11-27T05:52:57Z</time>
            </trkpt>
        </trkseg>
    </trk>
</gpx>